sensor_id;sensor_type;location;lat;lon;timestamp;pressure;altitude;pressure_sealevel;temperature;humidity
21359;BME280;13506;50.852;20.632;2024-03-02T00:01:20;97764.78;;;7.49;100.00
21359;BME280;13506;50.852;20.632;2024-03-02T00:03:49;97763.97;;;7.64;100.00
21359;BME280;13506;50.852;20.632;2024-03-02T00:06:20;97764.44;;;7.55;100.00
21359;BME280;13506;50.852;20.632;2024-03-02T00:08:49;97762.78;;;7.54;100.00
21359;BME280;13506;50.852;20.632;2024-03-02T00:11:17;97764.19;;;7.60;100.00
21359;BME280;13506;50.852;20.632;2024-03-02T00:13:46;97769.78;;;7.68;100.00
21359;BME280;13506;50.852;20.632;2024-03-02T00:16:14;97756.94;;;7.50;100.00
21359;BME280;13506;50.852;20.632;2024-03-02T00:18:43;97756.53;;;7.42;100.00
21359;BME280;13506;50.852;20.632;2024-03-02T00:21:11;97754.13;;;7.39;100.00
21359;BME280;13506;50.852;20.632;2024-03-02T00:23:41;97762.28;;;7.31;100.00
21359;BME280;13506;50.852;20.632;2024-03-02T00:26:12;97762.22;;;7.33;100.00
21359;BME280;13506;50.852;20.632;2024-03-02T00:28:41;97759.19;;;7.41;100.00
21359;BME280;13506;50.852;20.632;2024-03-02T00:31:12;97757.88;;;7.33;100.00
21359;BME280;13506;50.852;20.632;2024-03-02T00:33:42;97764.72;;;7.34;100.00
21359;BME280;13506;50.852;20.632;2024-03-02T00:36:13;97765.03;;;7.44;100.00
21359;BME280;13506;50.852;20.632;2024-03-02T00:38:46;97765.63;;;7.33;100.00
21359;BME280;13506;50.852;20.632;2024-03-02T00:41:18;97758.63;;;7.51;100.00
21359;BME280;13506;50.852;20.632;2024-03-02T00:43:57;97756.13;;;7.50;100.00
21359;BME280;13506;50.852;20.632;2024-03-02T00:46:26;97745.78;;;7.50;100.00
21359;BME280;13506;50.852;20.632;2024-03-02T00:48:58;97748.75;;;7.42;100.00
21359;BME280;13506;50.852;20.632;2024-03-02T00:51:28;97753.69;;;7.63;100.00
21359;BME280;13506;50.852;20.632;2024-03-02T00:54:00;97748.91;;;7.55;100.00
21359;BME280;13506;50.852;20.632;2024-03-02T00:56:31;97744.34;;;7.44;100.00
21359;BME280;13506;50.852;20.632;2024-03-02T00:59:00;97754.00;;;7.41;100.00
21359;BME280;13506;50.852;20.632;2024-03-02T01:01:29;97745.78;;;7.50;100.00
21359;BME280;13506;50.852;20.632;2024-03-02T01:03:57;97748.75;;;7.42;100.00
21359;BME280;13506;50.852;20.632;2024-03-02T01:06:25;97748.91;;;7.55;100.00
21359;BME280;13506;50.852;20.632;2024-03-02T01:08:53;97745.44;;;7.56;100.00
21359;BME280;13506;50.852;20.632;2024-03-02T01:11:23;97745.59;;;7.53;100.00
21359;BME280;13506;50.852;20.632;2024-03-02T01:13:52;97746.97;;;7.74;100.00
21359;BME280;13506;50.852;20.632;2024-03-02T01:16:20;97754.56;;;7.78;100.00
21359;BME280;13506;50.852;20.632;2024-03-02T01:18:52;97750.72;;;7.85;100.00
21359;BME280;13506;50.852;20.632;2024-03-02T01:21:21;97748.22;;;7.83;100.00
21359;BME280;13506;50.852;20.632;2024-03-02T01:23:49;97736.47;;;7.62;100.00
21359;BME280;13506;50.852;20.632;2024-03-02T01:26:17;97740.88;;;7.75;100.00
21359;BME280;13506;50.852;20.632;2024-03-02T01:28:47;97739.91;;;7.62;100.00
21359;BME280;13506;50.852;20.632;2024-03-02T01:31:17;97744.66;;;7.70;100.00
21359;BME280;13506;50.852;20.632;2024-03-02T01:33:45;97736.72;;;7.57;100.00
21359;BME280;13506;50.852;20.632;2024-03-02T01:36:13;97723.22;;;7.36;100.00
21359;BME280;13506;50.852;20.632;2024-03-02T01:38:41;97737.41;;;7.45;100.00
21359;BME280;13506;50.852;20.632;2024-03-02T01:41:10;97738.06;;;7.64;100.00
21359;BME280;13506;50.852;20.632;2024-03-02T01:43:39;97735.56;;;7.63;100.00
21359;BME280;13506;50.852;20.632;2024-03-02T01:46:09;97731.22;;;7.63;100.00
21359;BME280;13506;50.852;20.632;2024-03-02T01:48:38;97735.78;;;7.74;100.00
21359;BME280;13506;50.852;20.632;2024-03-02T01:51:06;97737.13;;;7.65;100.00
21359;BME280;13506;50.852;20.632;2024-03-02T01:53:35;97721.31;;;7.40;100.00
21359;BME280;13506;50.852;20.632;2024-03-02T01:56:04;97717.56;;;7.29;100.00
21359;BME280;13506;50.852;20.632;2024-03-02T01:58:32;97724.41;;;7.14;100.00
21359;BME280;13506;50.852;20.632;2024-03-02T02:01:00;97719.56;;;7.24;100.00
21359;BME280;13506;50.852;20.632;2024-03-02T02:03:31;97714.06;;;7.30;100.00
21359;BME280;13506;50.852;20.632;2024-03-02T02:05:59;97721.91;;;7.29;100.00
21359;BME280;13506;50.852;20.632;2024-03-02T02:08:28;97715.75;;;7.16;100.00
21359;BME280;13506;50.852;20.632;2024-03-02T02:10:56;97711.16;;;7.05;100.00
21359;BME280;13506;50.852;20.632;2024-03-02T02:13:24;97707.38;;;7.10;100.00
21359;BME280;13506;50.852;20.632;2024-03-02T02:15:53;97706.97;;;7.02;100.00
21359;BME280;13506;50.852;20.632;2024-03-02T02:18:21;97706.34;;;6.81;100.00
21359;BME280;13506;50.852;20.632;2024-03-02T02:20:51;97695.25;;;6.79;100.00
21359;BME280;13506;50.852;20.632;2024-03-02T02:23:21;97693.75;;;6.75;100.00
21359;BME280;13506;50.852;20.632;2024-03-02T02:25:50;97696.19;;;6.78;100.00
21359;BME280;13506;50.852;20.632;2024-03-02T02:28:18;97687.59;;;6.93;100.00
21359;BME280;13506;50.852;20.632;2024-03-02T02:30:46;97689.19;;;6.96;100.00
21359;BME280;13506;50.852;20.632;2024-03-02T02:33:15;97690.78;;;7.14;100.00
21359;BME280;13506;50.852;20.632;2024-03-02T02:35:42;97682.72;;;7.05;100.00
21359;BME280;13506;50.852;20.632;2024-03-02T02:38:10;97673.00;;;7.08;100.00
21359;BME280;13506;50.852;20.632;2024-03-02T02:40:40;97682.63;;;7.22;100.00
21359;BME280;13506;50.852;20.632;2024-03-02T02:43:08;97678.34;;;7.37;100.00
21359;BME280;13506;50.852;20.632;2024-03-02T02:45:37;97678.41;;;7.36;100.00
21359;BME280;13506;50.852;20.632;2024-03-02T02:48:06;97675.34;;;7.13;100.00
21359;BME280;13506;50.852;20.632;2024-03-02T02:50:34;97679.84;;;6.93;100.00
21359;BME280;13506;50.852;20.632;2024-03-02T02:53:02;97689.19;;;7.12;100.00
21359;BME280;13506;50.852;20.632;2024-03-02T02:55:30;97675.44;;;7.11;100.00
21359;BME280;13506;50.852;20.632;2024-03-02T02:58:00;97679.00;;;7.09;100.00
21359;BME280;13506;50.852;20.632;2024-03-02T03:00:28;97671.34;;;7.07;100.00
21359;BME280;13506;50.852;20.632;2024-03-02T03:02:57;97679.00;;;7.09;100.00
21359;BME280;13506;50.852;20.632;2024-03-02T03:05:26;97666.34;;;7.20;100.00
21359;BME280;13506;50.852;20.632;2024-03-02T03:07:54;97677.25;;;7.25;100.00
21359;BME280;13506;50.852;20.632;2024-03-02T03:10:22;97679.91;;;7.40;100.00
21359;BME280;13506;50.852;20.632;2024-03-02T03:12:53;97676.00;;;7.32;100.00
21359;BME280;13506;50.852;20.632;2024-03-02T03:15:24;97666.63;;;7.46;100.00
21359;BME280;13506;50.852;20.632;2024-03-02T03:17:52;97667.59;;;7.59;100.00
21359;BME280;13506;50.852;20.632;2024-03-02T03:20:21;97678.63;;;7.63;100.00
21359;BME280;13506;50.852;20.632;2024-03-02T03:22:51;97671.06;;;7.74;100.00
21359;BME280;13506;50.852;20.632;2024-03-02T03:25:19;97671.66;;;7.93;100.00
21359;BME280;13506;50.852;20.632;2024-03-02T03:27:48;97665.28;;;7.99;100.00
21359;BME280;13506;50.852;20.632;2024-03-02T03:30:16;97659.41;;;8.11;100.00
21359;BME280;13506;50.852;20.632;2024-03-02T03:32:45;97654.59;;;8.20;100.00
21359;BME280;13506;50.852;20.632;2024-03-02T03:35:14;97648.69;;;8.18;100.00
21359;BME280;13506;50.852;20.632;2024-03-02T03:37:43;97652.63;;;8.23;100.00
21359;BME280;13506;50.852;20.632;2024-03-02T03:40:11;97658.47;;;8.27;100.00
21359;BME280;13506;50.852;20.632;2024-03-02T03:42:41;97653.69;;;8.35;100.00
21359;BME280;13506;50.852;20.632;2024-03-02T03:45:09;97652.22;;;8.45;100.00
21359;BME280;13506;50.852;20.632;2024-03-02T03:47:38;97647.94;;;8.59;100.00
21359;BME280;13506;50.852;20.632;2024-03-02T03:51:00;97660.25;;;8.69;100.00
21359;BME280;13506;50.852;20.632;2024-03-02T03:53:29;97658.97;;;8.76;100.00
21359;BME280;13506;50.852;20.632;2024-03-02T03:55:57;97659.63;;;8.66;100.00
21359;BME280;13506;50.852;20.632;2024-03-02T03:58:25;97651.50;;;8.58;100.00
21359;BME280;13506;50.852;20.632;2024-03-02T04:00:53;97647.22;;;8.56;100.00
21359;BME280;13506;50.852;20.632;2024-03-02T04:03:21;97637.94;;;8.38;100.00
21359;BME280;13506;50.852;20.632;2024-03-02T04:05:50;97640.63;;;8.22;100.00
21359;BME280;13506;50.852;20.632;2024-03-02T04:08:20;97633.88;;;8.34;100.00
21359;BME280;13506;50.852;20.632;2024-03-02T04:10:48;97633.25;;;8.45;100.00
21359;BME280;13506;50.852;20.632;2024-03-02T04:13:17;97625.38;;;8.32;100.00
21359;BME280;13506;50.852;20.632;2024-03-02T04:15:45;97630.25;;;8.22;100.00
21359;BME280;13506;50.852;20.632;2024-03-02T04:18:13;97647.84;;;8.03;100.00
21359;BME280;13506;50.852;20.632;2024-03-02T04:20:41;97640.69;;;7.92;100.00
21359;BME280;13506;50.852;20.632;2024-03-02T04:23:10;97647.59;;;7.47;100.00
21359;BME280;13506;50.852;20.632;2024-03-02T04:25:39;97650.22;;;7.31;100.00
21359;BME280;13506;50.852;20.632;2024-03-02T04:28:08;97654.41;;;7.02;100.00
21359;BME280;13506;50.852;20.632;2024-03-02T04:30:36;97641.25;;;6.90;100.00
21359;BME280;13506;50.852;20.632;2024-03-02T04:33:05;97659.06;;;6.79;100.00
21359;BME280;13506;50.852;20.632;2024-03-02T04:35:36;97649.66;;;6.78;100.00
21359;BME280;13506;50.852;20.632;2024-03-02T04:38:04;97658.50;;;6.90;100.00
21359;BME280;13506;50.852;20.632;2024-03-02T04:40:33;97653.44;;;6.88;100.00
21359;BME280;13506;50.852;20.632;2024-03-02T04:43:03;97656.00;;;6.88;100.00
21359;BME280;13506;50.852;20.632;2024-03-02T04:45:31;97658.09;;;6.82;100.00
21359;BME280;13506;50.852;20.632;2024-03-02T04:47:59;97661.66;;;6.79;100.00
21359;BME280;13506;50.852;20.632;2024-03-02T04:50:28;97659.00;;;6.65;100.00
21359;BME280;13506;50.852;20.632;2024-03-02T04:52:55;97657.25;;;6.65;100.00
21359;BME280;13506;50.852;20.632;2024-03-02T04:55:24;97659.97;;;6.62;100.00
21359;BME280;13506;50.852;20.632;2024-03-02T04:58:24;97656.25;;;6.68;100.00
21359;BME280;13506;50.852;20.632;2024-03-02T05:00:52;97651.81;;;6.70;100.00
21359;BME280;13506;50.852;20.632;2024-03-02T05:03:20;97651.66;;;6.73;100.00
21359;BME280;13506;50.852;20.632;2024-03-02T05:05:49;97657.56;;;6.75;100.00
21359;BME280;13506;50.852;20.632;2024-03-02T05:08:17;97657.25;;;6.81;100.00
21359;BME280;13506;50.852;20.632;2024-03-02T05:10:45;97658.75;;;6.69;100.00
21359;BME280;13506;50.852;20.632;2024-03-02T05:13:13;97655.16;;;6.72;100.00
21359;BME280;13506;50.852;20.632;2024-03-02T05:15:43;97660.34;;;6.72;100.00
21359;BME280;13506;50.852;20.632;2024-03-02T05:18:11;97667.84;;;6.77;100.00
21359;BME280;13506;50.852;20.632;2024-03-02T05:20:39;97662.53;;;6.80;100.00
21359;BME280;13506;50.852;20.632;2024-03-02T05:23:07;97661.66;;;6.79;100.00
21359;BME280;13506;50.852;20.632;2024-03-02T05:25:36;97665.19;;;6.78;100.00
21359;BME280;13506;50.852;20.632;2024-03-02T05:28:04;97664.25;;;6.79;100.00
21359;BME280;13506;50.852;20.632;2024-03-02T05:30:33;97663.09;;;6.85;100.00
21359;BME280;13506;50.852;20.632;2024-03-02T05:33:02;97662.09;;;6.87;100.00
21359;BME280;13506;50.852;20.632;2024-03-02T05:35:31;97669.09;;;6.85;100.00
21359;BME280;13506;50.852;20.632;2024-03-02T05:37:59;97668.50;;;6.80;100.00
21359;BME280;13506;50.852;20.632;2024-03-02T05:40:28;97664.03;;;6.84;100.00
21359;BME280;13506;50.852;20.632;2024-03-02T05:42:55;97673.34;;;6.86;100.00
21359;BME280;13506;50.852;20.632;2024-03-02T05:45:24;97679.28;;;6.88;100.00
21359;BME280;13506;50.852;20.632;2024-03-02T05:47:52;97682.59;;;7.06;100.00
21359;BME280;13506;50.852;20.632;2024-03-02T05:50:21;97687.19;;;7.17;100.00
21359;BME280;13506;50.852;20.632;2024-03-02T05:52:49;97688.69;;;7.21;100.00
21359;BME280;13506;50.852;20.632;2024-03-02T05:55:18;97693.03;;;7.37;100.00
21359;BME280;13506;50.852;20.632;2024-03-02T05:57:46;97698.03;;;7.40;100.00
21359;BME280;13506;50.852;20.632;2024-03-02T06:00:26;97681.75;;;7.38;100.00
21359;BME280;13506;50.852;20.632;2024-03-02T06:02:54;97700.34;;;7.44;100.00
21359;BME280;13506;50.852;20.632;2024-03-02T06:05:25;97695.63;;;7.37;100.00
21359;BME280;13506;50.852;20.632;2024-03-02T06:07:53;97695.25;;;7.43;100.00
21359;BME280;13506;50.852;20.632;2024-03-02T06:10:21;97696.25;;;7.40;100.00
21359;BME280;13506;50.852;20.632;2024-03-02T06:12:49;97685.00;;;7.41;100.00
21359;BME280;13506;50.852;20.632;2024-03-02T06:15:17;97694.34;;;7.44;100.00
21359;BME280;13506;50.852;20.632;2024-03-02T06:17:45;97696.00;;;7.45;100.00
21359;BME280;13506;50.852;20.632;2024-03-02T06:20:14;97711.16;;;7.37;100.00
21359;BME280;13506;50.852;20.632;2024-03-02T06:22:43;97700.69;;;7.38;100.00
21359;BME280;13506;50.852;20.632;2024-03-02T06:25:12;97699.94;;;7.52;100.00
21359;BME280;13506;50.852;20.632;2024-03-02T06:27:40;97712.53;;;7.58;100.00
21359;BME280;13506;50.852;20.632;2024-03-02T06:30:09;97715.06;;;7.74;100.00
21359;BME280;13506;50.852;20.632;2024-03-02T06:32:37;97713.28;;;7.60;100.00
21359;BME280;13506;50.852;20.632;2024-03-02T06:35:06;97705.47;;;7.76;100.00
21359;BME280;13506;50.852;20.632;2024-03-02T06:37:37;97703.94;;;7.88;100.00
21359;BME280;13506;50.852;20.632;2024-03-02T06:40:08;97710.38;;;8.11;100.00
21359;BME280;13506;50.852;20.632;2024-03-02T06:42:37;97712.97;;;8.11;100.00
21359;BME280;13506;50.852;20.632;2024-03-02T06:45:06;97710.53;;;8.08;100.00
21359;BME280;13506;50.852;20.632;2024-03-02T06:47:34;97708.59;;;7.97;100.00
21359;BME280;13506;50.852;20.632;2024-03-02T06:50:02;97704.63;;;8.06;100.00
21359;BME280;13506;50.852;20.632;2024-03-02T06:52:30;97713.69;;;7.99;100.00
21359;BME280;13506;50.852;20.632;2024-03-02T06:54:59;97707.53;;;8.15;100.00
21359;BME280;13506;50.852;20.632;2024-03-02T06:57:28;97710.78;;;8.19;100.00
21359;BME280;13506;50.852;20.632;2024-03-02T06:59:57;97715.78;;;8.36;100.00
21359;BME280;13506;50.852;20.632;2024-03-02T07:02:25;97719.94;;;8.39;100.00
21359;BME280;13506;50.852;20.632;2024-03-02T07:04:53;97725.22;;;8.38;100.00
21359;BME280;13506;50.852;20.632;2024-03-02T07:07:22;97730.16;;;8.56;100.00
21359;BME280;13506;50.852;20.632;2024-03-02T07:09:50;97718.78;;;8.59;100.00
21359;BME280;13506;50.852;20.632;2024-03-02T07:12:18;97731.84;;;8.43;100.00
21359;BME280;13506;50.852;20.632;2024-03-02T07:14:48;97723.50;;;8.52;100.00
21359;BME280;13506;50.852;20.632;2024-03-02T07:17:38;97734.44;;;8.58;100.00
21359;BME280;13506;50.852;20.632;2024-03-02T07:20:07;97736.31;;;8.40;100.00
21359;BME280;13506;50.852;20.632;2024-03-02T07:22:35;97734.00;;;8.35;100.00
21359;BME280;13506;50.852;20.632;2024-03-02T07:25:06;97729.56;;;8.37;100.00
21359;BME280;13506;50.852;20.632;2024-03-02T07:27:35;97725.06;;;8.55;100.00
21359;BME280;13506;50.852;20.632;2024-03-02T07:30:06;97742.50;;;8.53;100.00
21359;BME280;13506;50.852;20.632;2024-03-02T07:32:34;97741.69;;;8.36;100.00
21359;BME280;13506;50.852;20.632;2024-03-02T07:35:02;97747.41;;;8.27;100.00
21359;BME280;13506;50.852;20.632;2024-03-02T07:37:31;97741.41;;;8.27;100.00
21359;BME280;13506;50.852;20.632;2024-03-02T07:39:59;97739.16;;;8.21;100.00
21359;BME280;13506;50.852;20.632;2024-03-02T07:42:27;97729.16;;;8.14;100.00
21359;BME280;13506;50.852;20.632;2024-03-02T07:44:56;97739.75;;;8.26;100.00
21359;BME280;13506;50.852;20.632;2024-03-02T07:47:25;97735.84;;;8.49;100.00
21359;BME280;13506;50.852;20.632;2024-03-02T07:49:54;97742.19;;;8.43;100.00
21359;BME280;13506;50.852;20.632;2024-03-02T07:52:22;97740.00;;;8.51;100.00
21359;BME280;13506;50.852;20.632;2024-03-02T07:54:50;97754.34;;;8.27;100.00
21359;BME280;13506;50.852;20.632;2024-03-02T07:57:18;97746.03;;;8.22;100.00
21359;BME280;13506;50.852;20.632;2024-03-02T07:59:47;97749.13;;;8.12;100.00
21359;BME280;13506;50.852;20.632;2024-03-02T08:02:15;97746.06;;;8.36;100.00
21359;BME280;13506;50.852;20.632;2024-03-02T08:04:47;97748.22;;;8.44;100.00
21359;BME280;13506;50.852;20.632;2024-03-02T08:07:15;97746.22;;;8.33;100.00
21359;BME280;13506;50.852;20.632;2024-03-02T08:09:43;97745.94;;;8.68;100.00
21359;BME280;13506;50.852;20.632;2024-03-02T08:12:12;97749.97;;;8.43;100.00
21359;BME280;13506;50.852;20.632;2024-03-02T08:14:41;97742.22;;;8.58;100.00
21359;BME280;13506;50.852;20.632;2024-03-02T08:17:09;97744.34;;;8.65;100.00
21359;BME280;13506;50.852;20.632;2024-03-02T08:19:38;97751.56;;;8.74;100.00
21359;BME280;13506;50.852;20.632;2024-03-02T08:22:08;97754.72;;;8.80;100.00
21359;BME280;13506;50.852;20.632;2024-03-02T08:24:37;97747.88;;;8.79;100.00
21359;BME280;13506;50.852;20.632;2024-03-02T08:27:05;97756.56;;;8.77;100.00
21359;BME280;13506;50.852;20.632;2024-03-02T08:29:33;97764.16;;;8.66;100.00
21359;BME280;13506;50.852;20.632;2024-03-02T08:32:02;97754.25;;;8.73;100.00
21359;BME280;13506;50.852;20.632;2024-03-02T08:34:30;97758.88;;;8.96;100.00
21359;BME280;13506;50.852;20.632;2024-03-02T08:36:58;97762.41;;;8.95;100.00
21359;BME280;13506;50.852;20.632;2024-03-02T08:39:29;97764.53;;;9.03;100.00
21359;BME280;13506;50.852;20.632;2024-03-02T08:41:57;97762.13;;;8.86;100.00
21359;BME280;13506;50.852;20.632;2024-03-02T08:44:27;97757.97;;;8.98;100.00
21359;BME280;13506;50.852;20.632;2024-03-02T08:46:55;97763.25;;;8.96;100.00
21359;BME280;13506;50.852;20.632;2024-03-02T08:49:23;97768.44;;;8.82;100.00
21359;BME280;13506;50.852;20.632;2024-03-02T08:51:51;97764.44;;;8.90;100.00
21359;BME280;13506;50.852;20.632;2024-03-02T08:54:21;97768.72;;;8.91;100.00
21359;BME280;13506;50.852;20.632;2024-03-02T08:56:51;97769.34;;;8.66;100.00
21359;BME280;13506;50.852;20.632;2024-03-02T08:59:19;97772.97;;;8.64;100.00
21359;BME280;13506;50.852;20.632;2024-03-02T09:01:47;97776.56;;;8.61;100.00
21359;BME280;13506;50.852;20.632;2024-03-02T09:04:15;97767.66;;;8.65;100.00
21359;BME280;13506;50.852;20.632;2024-03-02T09:06:44;97774.63;;;8.65;100.00
21359;BME280;13506;50.852;20.632;2024-03-02T09:09:12;97769.72;;;8.74;100.00
21359;BME280;13506;50.852;20.632;2024-03-02T09:11:40;97772.78;;;8.81;100.00
21359;BME280;13506;50.852;20.632;2024-03-02T09:14:10;97764.16;;;8.66;100.00
21359;BME280;13506;50.852;20.632;2024-03-02T09:16:38;97772.75;;;8.52;100.00
21359;BME280;13506;50.852;20.632;2024-03-02T09:19:07;97774.88;;;8.46;100.00
21359;BME280;13506;50.852;20.632;2024-03-02T09:21:36;97767.88;;;8.62;100.00
21359;BME280;13506;50.852;20.632;2024-03-02T09:24:05;97776.56;;;8.61;100.00
21359;BME280;13506;50.852;20.632;2024-03-02T09:26:33;97771.56;;;8.58;100.00
21359;BME280;13506;50.852;20.632;2024-03-02T09:29:01;97780.47;;;8.83;100.00
21359;BME280;13506;50.852;20.632;2024-03-02T09:31:31;97773.91;;;8.77;100.00
21359;BME280;13506;50.852;20.632;2024-03-02T09:33:59;97773.50;;;8.69;100.00
21359;BME280;13506;50.852;20.632;2024-03-02T09:36:27;97788.03;;;8.71;100.00
21359;BME280;13506;50.852;20.632;2024-03-02T09:38:56;97785.38;;;8.73;100.00
21359;BME280;13506;50.852;20.632;2024-03-02T09:41:24;97779.06;;;8.63;100.00
21359;BME280;13506;50.852;20.632;2024-03-02T09:43:54;97786.84;;;8.63;100.00
21359;BME280;13506;50.852;20.632;2024-03-02T09:46:22;97789.16;;;8.82;100.00
21359;BME280;13506;50.852;20.632;2024-03-02T09:48:52;97787.41;;;8.68;100.00
21359;BME280;13506;50.852;20.632;2024-03-02T09:51:24;97792.97;;;8.90;100.00
21359;BME280;13506;50.852;20.632;2024-03-02T09:53:52;97785.28;;;8.74;100.00
21359;BME280;13506;50.852;20.632;2024-03-02T09:56:22;97790.47;;;8.89;100.00
21359;BME280;13506;50.852;20.632;2024-03-02T09:58:50;97789.63;;;8.88;100.00
21359;BME280;13506;50.852;20.632;2024-03-02T10:01:19;97782.88;;;9.00;100.00
21359;BME280;13506;50.852;20.632;2024-03-02T10:03:48;97779.81;;;9.08;100.00
21359;BME280;13506;50.852;20.632;2024-03-02T10:06:22;97779.78;;;9.22;100.00
21359;BME280;13506;50.852;20.632;2024-03-02T10:08:51;97778.75;;;9.39;100.00
21359;BME280;13506;50.852;20.632;2024-03-02T10:11:27;97782.59;;;9.61;100.00
21359;BME280;13506;50.852;20.632;2024-03-02T10:14:05;97772.25;;;9.73;100.00
21359;BME280;13506;50.852;20.632;2024-03-02T10:16:36;97778.53;;;9.84;100.00
21359;BME280;13506;50.852;20.632;2024-03-02T10:19:18;97772.06;;;10.04;100.00
21359;BME280;13506;50.852;20.632;2024-03-02T10:21:48;97777.78;;;9.82;100.00
21359;BME280;13506;50.852;20.632;2024-03-02T10:24:17;97769.75;;;9.99;100.00
21359;BME280;13506;50.852;20.632;2024-03-02T10:26:45;97778.59;;;10.09;100.00
21359;BME280;13506;50.852;20.632;2024-03-02T10:29:14;97773.22;;;10.12;100.00
21359;BME280;13506;50.852;20.632;2024-03-02T10:31:43;97775.28;;;10.20;100.00
21359;BME280;13506;50.852;20.632;2024-03-02T10:34:13;97777.41;;;10.28;100.00
21359;BME280;13506;50.852;20.632;2024-03-02T10:36:44;97771.56;;;10.24;100.00
21359;BME280;13506;50.852;20.632;2024-03-02T10:39:15;97785.16;;;10.42;100.00
21359;BME280;13506;50.852;20.632;2024-03-02T10:41:44;97776.88;;;10.23;100.00
21359;BME280;13506;50.852;20.632;2024-03-02T10:44:14;97780.69;;;10.44;100.00
21359;BME280;13506;50.852;20.632;2024-03-02T10:46:43;97771.66;;;10.75;100.00
21359;BME280;13506;50.852;20.632;2024-03-02T10:49:13;97775.59;;;10.55;100.00
21359;BME280;13506;50.852;20.632;2024-03-02T10:51:42;97777.69;;;10.76;100.00
21359;BME280;13506;50.852;20.632;2024-03-02T10:54:10;97786.53;;;10.86;99.56
21359;BME280;13506;50.852;20.632;2024-03-02T10:56:45;97776.00;;;10.88;99.35
21359;BME280;13506;50.852;20.632;2024-03-02T10:59:21;97781.84;;;10.91;98.66
21359;BME280;13506;50.852;20.632;2024-03-02T11:01:51;97778.19;;;10.81;99.27
21359;BME280;13506;50.852;20.632;2024-03-02T11:04:22;97783.50;;;10.92;99.22
21359;BME280;13506;50.852;20.632;2024-03-02T11:06:52;97772.47;;;11.02;99.52
21359;BME280;13506;50.852;20.632;2024-03-02T11:09:24;97775.06;;;11.02;99.27
21359;BME280;13506;50.852;20.632;2024-03-02T11:12:02;97777.03;;;10.85;99.16
21359;BME280;13506;50.852;20.632;2024-03-02T11:14:32;97773.59;;;10.97;99.23
21359;BME280;13506;50.852;20.632;2024-03-02T11:17:09;97777.91;;;10.98;98.88
21359;BME280;13506;50.852;20.632;2024-03-02T11:19:53;97768.75;;;10.80;99.28
21359;BME280;13506;50.852;20.632;2024-03-02T11:22:35;97770.59;;;10.91;98.84
21359;BME280;13506;50.852;20.632;2024-03-02T11:25:23;97773.63;;;10.72;100.00
21359;BME280;13506;50.852;20.632;2024-03-02T11:28:07;97770.78;;;11.00;100.00
21359;BME280;13506;50.852;20.632;2024-03-02T11:30:52;97766.41;;;11.14;99.20
21359;BME280;13506;50.852;20.632;2024-03-02T11:33:24;97768.63;;;11.07;98.83
21359;BME280;13506;50.852;20.632;2024-03-02T11:35:59;97773.50;;;11.12;98.24
21359;BME280;13506;50.852;20.632;2024-03-02T11:38:31;97771.81;;;11.11;98.16
21359;BME280;13506;50.852;20.632;2024-03-02T11:41:01;97778.78;;;11.10;97.65
21359;BME280;13506;50.852;20.632;2024-03-02T11:43:31;97771.41;;;11.04;98.47
21359;BME280;13506;50.852;20.632;2024-03-02T11:46:00;97768.00;;;11.40;97.85
21359;BME280;13506;50.852;20.632;2024-03-02T11:48:31;97765.56;;;11.26;96.48
21359;BME280;13506;50.852;20.632;2024-03-02T11:51:01;97763.38;;;11.20;96.82
21359;BME280;13506;50.852;20.632;2024-03-02T11:53:29;97757.78;;;11.13;97.59
21359;BME280;13506;50.852;20.632;2024-03-02T11:55:59;97758.31;;;11.43;96.86
21359;BME280;13506;50.852;20.632;2024-03-02T11:58:30;97763.53;;;11.30;95.14
21359;BME280;13506;50.852;20.632;2024-03-02T12:01:00;97766.00;;;11.44;94.92
21359;BME280;13506;50.852;20.632;2024-03-02T12:03:29;97756.13;;;11.36;95.51
21359;BME280;13506;50.852;20.632;2024-03-02T12:06:00;97764.38;;;11.43;94.38
21359;BME280;13506;50.852;20.632;2024-03-02T12:08:28;97763.59;;;11.54;94.29
21359;BME280;13506;50.852;20.632;2024-03-02T12:10:57;97761.53;;;11.70;94.29
21359;BME280;13506;50.852;20.632;2024-03-02T12:13:26;97749.34;;;11.71;92.68
21359;BME280;13506;50.852;20.632;2024-03-02T12:15:56;97750.13;;;11.60;93.41
21359;BME280;13506;50.852;20.632;2024-03-02T12:18:24;97753.72;;;11.70;93.17
21359;BME280;13506;50.852;20.632;2024-03-02T12:20:53;97748.16;;;11.51;93.52
21359;BME280;13506;50.852;20.632;2024-03-02T12:23:24;97755.66;;;11.55;93.04
21359;BME280;13506;50.852;20.632;2024-03-02T12:25:52;97749.34;;;11.71;93.89
21359;BME280;13506;50.852;20.632;2024-03-02T12:28:21;97748.16;;;11.51;93.60
21359;BME280;13506;50.852;20.632;2024-03-02T12:30:49;97753.91;;;11.80;93.70
21359;BME280;13506;50.852;20.632;2024-03-02T12:33:20;97751.59;;;11.88;92.12
21359;BME280;13506;50.852;20.632;2024-03-02T12:35:49;97742.63;;;11.55;92.70
21359;BME280;13506;50.852;20.632;2024-03-02T12:38:17;97756.00;;;11.51;92.28
21359;BME280;13506;50.852;20.632;2024-03-02T12:40:48;97751.63;;;11.75;92.52
21359;BME280;13506;50.852;20.632;2024-03-02T12:43:17;97753.72;;;11.70;92.44
21359;BME280;13506;50.852;20.632;2024-03-02T12:45:45;97750.91;;;11.73;92.49
21359;BME280;13506;50.852;20.632;2024-03-02T12:48:14;97752.41;;;11.89;92.07
21359;BME280;13506;50.852;20.632;2024-03-02T12:50:44;97754.81;;;11.92;92.32
21359;BME280;13506;50.852;20.632;2024-03-02T12:53:15;97745.84;;;11.96;91.74
21359;BME280;13506;50.852;20.632;2024-03-02T12:55:43;97750.56;;;11.78;91.54
21359;BME280;13506;50.852;20.632;2024-03-02T12:58:18;97750.25;;;11.58;94.05
21359;BME280;13506;50.852;20.632;2024-03-02T13:00:46;97754.50;;;11.84;93.27
21359;BME280;13506;50.852;20.632;2024-03-02T13:03:15;97749.06;;;11.87;91.92